sensor_id;sensor_type;location;lat;lon;timestamp;P1;durP1;ratioP1;P2;durP2;ratioP2
23228;SDS011;11783;50.350;6.576;2023-05-29T00:01:16;7.05;;;3.17;;
23228;SDS011;11783;50.350;6.576;2023-05-29T00:03:43;9.18;;;3.80;;
23228;SDS011;11783;50.350;6.576;2023-05-29T00:06:09;9.20;;;3.58;;
23228;SDS011;11783;50.350;6.576;2023-05-29T00:08:35;9.88;;;3.55;;
23228;SDS011;11783;50.350;6.576;2023-05-29T00:11:00;8.20;;;3.83;;
23228;SDS011;11783;50.350;6.576;2023-05-29T00:13:26;7.97;;;3.47;;
23228;SDS011;11783;50.350;6.576;2023-05-29T00:15:52;8.43;;;3.58;;
23228;SDS011;11783;50.350;6.576;2023-05-29T00:18:17;10.65;;;3.88;;
23228;SDS011;11783;50.350;6.576;2023-05-29T00:20:42;8.23;;;3.45;;
23228;SDS011;11783;50.350;6.576;2023-05-29T00:23:08;9.15;;;3.90;;
23228;SDS011;11783;50.350;6.576;2023-05-29T00:25:34;9.07;;;3.58;;
23228;SDS011;11783;50.350;6.576;2023-05-29T00:28:00;9.70;;;4.15;;
23228;SDS011;11783;50.350;6.576;2023-05-29T00:30:26;9.27;;;3.50;;
23228;SDS011;11783;50.350;6.576;2023-05-29T00:32:51;8.85;;;4.20;;
23228;SDS011;11783;50.350;6.576;2023-05-29T00:35:19;7.13;;;3.30;;
23228;SDS011;11783;50.350;6.576;2023-05-29T00:37:45;10.73;;;3.72;;
23228;SDS011;11783;50.350;6.576;2023-05-29T00:40:10;9.25;;;3.67;;
23228;SDS011;11783;50.350;6.576;2023-05-29T00:42:36;9.65;;;4.00;;
23228;SDS011;11783;50.350;6.576;2023-05-29T00:45:02;9.40;;;3.88;;
23228;SDS011;11783;50.350;6.576;2023-05-29T00:47:27;9.25;;;3.50;;
23228;SDS011;11783;50.350;6.576;2023-05-29T00:49:55;9.70;;;4.90;;
23228;SDS011;11783;50.350;6.576;2023-05-29T00:52:21;9.45;;;4.07;;
23228;SDS011;11783;50.350;6.576;2023-05-29T00:54:48;9.13;;;4.43;;
23228;SDS011;11783;50.350;6.576;2023-05-29T00:57:13;9.07;;;3.92;;
23228;SDS011;11783;50.350;6.576;2023-05-29T00:59:39;9.63;;;4.40;;
23228;SDS011;11783;50.350;6.576;2023-05-29T01:02:06;11.07;;;4.30;;
23228;SDS011;11783;50.350;6.576;2023-05-29T01:04:31;13.23;;;4.55;;
23228;SDS011;11783;50.350;6.576;2023-05-29T01:07:00;8.73;;;4.25;;
23228;SDS011;11783;50.350;6.576;2023-05-29T01:09:27;10.75;;;4.35;;
23228;SDS011;11783;50.350;6.576;2023-05-29T01:12:03;13.40;;;4.38;;
23228;SDS011;11783;50.350;6.576;2023-05-29T01:20:35;9.00;;;4.07;;
23228;SDS011;11783;50.350;6.576;2023-05-29T01:23:19;10.48;;;4.13;;
23228;SDS011;11783;50.350;6.576;2023-05-29T01:28:51;9.18;;;4.28;;
23228;SDS011;11783;50.350;6.576;2023-05-29T01:31:19;8.68;;;4.43;;
23228;SDS011;11783;50.350;6.576;2023-05-29T01:36:19;10.57;;;4.30;;
23228;SDS011;11783;50.350;6.576;2023-05-29T01:38:45;10.85;;;4.68;;
23228;SDS011;11783;50.350;6.576;2023-05-29T01:41:12;10.65;;;5.00;;
23228;SDS011;11783;50.350;6.576;2023-05-29T01:43:37;10.35;;;4.68;;
23228;SDS011;11783;50.350;6.576;2023-05-29T01:46:03;9.98;;;4.30;;
23228;SDS011;11783;50.350;6.576;2023-05-29T01:48:29;9.23;;;4.30;;
23228;SDS011;11783;50.350;6.576;2023-05-29T01:50:55;12.07;;;5.20;;
23228;SDS011;11783;50.350;6.576;2023-05-29T01:53:22;12.43;;;4.78;;
23228;SDS011;11783;50.350;6.576;2023-05-29T01:55:48;11.93;;;4.78;;
23228;SDS011;11783;50.350;6.576;2023-05-29T01:58:14;11.27;;;4.97;;
23228;SDS011;11783;50.350;6.576;2023-05-29T02:00:41;11.50;;;5.03;;
23228;SDS011;11783;50.350;6.576;2023-05-29T02:03:06;10.40;;;5.20;;
23228;SDS011;11783;50.350;6.576;2023-05-29T02:05:32;11.93;;;4.93;;
23228;SDS011;11783;50.350;6.576;2023-05-29T02:07:57;16.90;;;5.45;;
23228;SDS011;11783;50.350;6.576;2023-05-29T02:10:23;9.65;;;4.82;;
23228;SDS011;11783;50.350;6.576;2023-05-29T02:12:48;13.27;;;4.72;;
23228;SDS011;11783;50.350;6.576;2023-05-29T02:15:13;11.10;;;4.95;;
23228;SDS011;11783;50.350;6.576;2023-05-29T02:17:39;12.40;;;5.00;;
23228;SDS011;11783;50.350;6.576;2023-05-29T02:20:06;11.20;;;4.68;;
23228;SDS011;11783;50.350;6.576;2023-05-29T02:22:32;12.65;;;4.50;;
23228;SDS011;11783;50.350;6.576;2023-05-29T02:24:57;8.90;;;4.90;;
23228;SDS011;11783;50.350;6.576;2023-05-29T02:27:23;10.25;;;4.40;;
23228;SDS011;11783;50.350;6.576;2023-05-29T02:29:48;12.65;;;4.53;;
23228;SDS011;11783;50.350;6.576;2023-05-29T02:32:14;9.30;;;4.30;;
23228;SDS011;11783;50.350;6.576;2023-05-29T02:34:39;11.00;;;4.82;;
23228;SDS011;11783;50.350;6.576;2023-05-29T02:37:04;11.00;;;4.50;;
23228;SDS011;11783;50.350;6.576;2023-05-29T02:39:30;10.27;;;4.68;;
23228;SDS011;11783;50.350;6.576;2023-05-29T02:41:55;10.73;;;4.13;;
23228;SDS011;11783;50.350;6.576;2023-05-29T02:44:20;11.60;;;4.60;;
23228;SDS011;11783;50.350;6.576;2023-05-29T02:46:46;11.13;;;4.85;;
23228;SDS011;11783;50.350;6.576;2023-05-29T02:49:11;9.23;;;5.10;;
23228;SDS011;11783;50.350;6.576;2023-05-29T02:51:36;10.68;;;5.00;;
23228;SDS011;11783;50.350;6.576;2023-05-29T02:54:02;8.73;;;4.55;;
23228;SDS011;11783;50.350;6.576;2023-05-29T02:56:27;9.90;;;4.15;;
23228;SDS011;11783;50.350;6.576;2023-05-29T02:58:53;8.73;;;4.43;;
23228;SDS011;11783;50.350;6.576;2023-05-29T03:01:18;10.27;;;4.60;;
23228;SDS011;11783;50.350;6.576;2023-05-29T03:03:44;9.20;;;4.30;;
23228;SDS011;11783;50.350;6.576;2023-05-29T03:06:09;10.60;;;4.40;;
23228;SDS011;11783;50.350;6.576;2023-05-29T03:08:35;10.18;;;3.97;;
23228;SDS011;11783;50.350;6.576;2023-05-29T03:11:04;9.55;;;3.97;;
23228;SDS011;11783;50.350;6.576;2023-05-29T03:13:31;8.25;;;4.05;;
23228;SDS011;11783;50.350;6.576;2023-05-29T03:15:59;11.38;;;4.10;;
23228;SDS011;11783;50.350;6.576;2023-05-29T03:18:24;10.50;;;4.00;;
23228;SDS011;11783;50.350;6.576;2023-05-29T03:20:50;8.85;;;3.78;;
23228;SDS011;11783;50.350;6.576;2023-05-29T03:23:15;12.90;;;4.22;;
23228;SDS011;11783;50.350;6.576;2023-05-29T03:25:40;7.05;;;3.67;;
23228;SDS011;11783;50.350;6.576;2023-05-29T03:28:06;8.23;;;3.88;;
23228;SDS011;11783;50.350;6.576;2023-05-29T03:30:31;10.38;;;4.03;;
23228;SDS011;11783;50.350;6.576;2023-05-29T03:32:56;7.20;;;3.60;;
23228;SDS011;11783;50.350;6.576;2023-05-29T03:35:22;8.50;;;3.70;;
23228;SDS011;11783;50.350;6.576;2023-05-29T03:37:47;8.20;;;3.83;;
23228;SDS011;11783;50.350;6.576;2023-05-29T03:40:12;9.50;;;3.97;;
23228;SDS011;11783;50.350;6.576;2023-05-29T03:42:38;9.55;;;4.00;;
23228;SDS011;11783;50.350;6.576;2023-05-29T03:45:04;9.32;;;3.97;;
23228;SDS011;11783;50.350;6.576;2023-05-29T03:47:29;12.73;;;3.40;;
23228;SDS011;11783;50.350;6.576;2023-05-29T03:49:55;9.23;;;3.72;;
23228;SDS011;11783;50.350;6.576;2023-05-29T03:52:20;6.63;;;3.53;;
23228;SDS011;11783;50.350;6.576;2023-05-29T03:54:46;8.15;;;3.40;;
23228;SDS011;11783;50.350;6.576;2023-05-29T03:57:11;8.98;;;4.25;;
23228;SDS011;11783;50.350;6.576;2023-05-29T03:59:36;8.18;;;3.58;;
23228;SDS011;11783;50.350;6.576;2023-05-29T04:02:02;8.25;;;3.55;;
23228;SDS011;11783;50.350;6.576;2023-05-29T04:04:27;9.00;;;3.60;;
23228;SDS011;11783;50.350;6.576;2023-05-29T04:06:53;8.55;;;3.42;;
23228;SDS011;11783;50.350;6.576;2023-05-29T04:09:18;7.38;;;3.80;;
23228;SDS011;11783;50.350;6.576;2023-05-29T04:11:43;7.60;;;3.53;;
23228;SDS011;11783;50.350;6.576;2023-05-29T04:14:09;7.82;;;3.80;;
23228;SDS011;11783;50.350;6.576;2023-05-29T04:16:35;7.70;;;3.45;;
23228;SDS011;11783;50.350;6.576;2023-05-29T04:19:00;7.30;;;3.83;;
23228;SDS011;11783;50.350;6.576;2023-05-29T04:21:26;11.05;;;3.70;;
23228;SDS011;11783;50.350;6.576;2023-05-29T04:23:51;11.52;;;3.70;;
23228;SDS011;11783;50.350;6.576;2023-05-29T04:26:17;7.78;;;3.78;;
23228;SDS011;11783;50.350;6.576;2023-05-29T04:28:42;8.27;;;3.75;;
23228;SDS011;11783;50.350;6.576;2023-05-29T04:31:08;7.55;;;3.58;;
23228;SDS011;11783;50.350;6.576;2023-05-29T04:33:39;4.00;;;2.35;;
23228;SDS011;11783;50.350;6.576;2023-05-29T04:36:05;6.63;;;3.33;;
23228;SDS011;11783;50.350;6.576;2023-05-29T04:38:30;9.73;;;3.42;;
23228;SDS011;11783;50.350;6.576;2023-05-29T04:40:56;5.72;;;3.50;;
23228;SDS011;11783;50.350;6.576;2023-05-29T04:43:25;7.53;;;3.83;;
23228;SDS011;11783;50.350;6.576;2023-05-29T04:45:53;10.02;;;3.67;;
23228;SDS011;11783;50.350;6.576;2023-05-29T04:48:18;7.88;;;4.30;;
23228;SDS011;11783;50.350;6.576;2023-05-29T04:50:43;8.20;;;3.70;;
23228;SDS011;11783;50.350;6.576;2023-05-29T04:53:09;7.68;;;4.03;;
23228;SDS011;11783;50.350;6.576;2023-05-29T04:55:35;7.65;;;3.47;;
23228;SDS011;11783;50.350;6.576;2023-05-29T04:58:01;10.05;;;3.90;;
23228;SDS011;11783;50.350;6.576;2023-05-29T05:00:27;9.57;;;3.53;;
23228;SDS011;11783;50.350;6.576;2023-05-29T05:02:52;12.35;;;4.13;;
23228;SDS011;11783;50.350;6.576;2023-05-29T05:05:17;9.50;;;3.88;;
23228;SDS011;11783;50.350;6.576;2023-05-29T05:07:43;7.13;;;3.40;;
23228;SDS011;11783;50.350;6.576;2023-05-29T05:10:08;7.93;;;3.78;;
23228;SDS011;11783;50.350;6.576;2023-05-29T05:12:34;9.55;;;3.80;;
23228;SDS011;11783;50.350;6.576;2023-05-29T05:15:00;7.57;;;3.70;;
23228;SDS011;11783;50.350;6.576;2023-05-29T05:17:26;8.40;;;4.00;;
23228;SDS011;11783;50.350;6.576;2023-05-29T05:19:52;9.95;;;3.58;;
23228;SDS011;11783;50.350;6.576;2023-05-29T05:22:18;7.93;;;3.50;;
23228;SDS011;11783;50.350;6.576;2023-05-29T05:24:44;7.82;;;4.10;;
23228;SDS011;11783;50.350;6.576;2023-05-29T05:27:10;9.10;;;3.95;;
23228;SDS011;11783;50.350;6.576;2023-05-29T05:29:35;7.40;;;3.70;;
23228;SDS011;11783;50.350;6.576;2023-05-29T05:32:00;10.63;;;3.53;;
23228;SDS011;11783;50.350;6.576;2023-05-29T05:34:25;8.65;;;3.63;;
23228;SDS011;11783;50.350;6.576;2023-05-29T05:36:51;7.95;;;3.92;;
23228;SDS011;11783;50.350;6.576;2023-05-29T05:39:16;9.57;;;4.13;;
23228;SDS011;11783;50.350;6.576;2023-05-29T05:41:41;6.78;;;3.72;;
23228;SDS011;11783;50.350;6.576;2023-05-29T05:44:07;9.82;;;4.15;;
23228;SDS011;11783;50.350;6.576;2023-05-29T05:46:32;9.73;;;3.70;;
23228;SDS011;11783;50.350;6.576;2023-05-29T05:48:58;10.15;;;3.80;;
23228;SDS011;11783;50.350;6.576;2023-05-29T05:51:25;7.78;;;3.60;;
23228;SDS011;11783;50.350;6.576;2023-05-29T05:53:51;8.32;;;3.60;;
23228;SDS011;11783;50.350;6.576;2023-05-29T05:56:17;8.20;;;3.58;;
23228;SDS011;11783;50.350;6.576;2023-05-29T05:58:42;9.32;;;3.70;;
23228;SDS011;11783;50.350;6.576;2023-05-29T06:01:07;7.53;;;3.58;;
23228;SDS011;11783;50.350;6.576;2023-05-29T06:03:33;8.90;;;3.50;;
23228;SDS011;11783;50.350;6.576;2023-05-29T06:05:59;7.78;;;3.38;;
23228;SDS011;11783;50.350;6.576;2023-05-29T06:08:25;8.07;;;3.80;;
23228;SDS011;11783;50.350;6.576;2023-05-29T06:10:50;8.63;;;3.65;;
23228;SDS011;11783;50.350;6.576;2023-05-29T06:13:15;9.27;;;3.88;;
23228;SDS011;11783;50.350;6.576;2023-05-29T06:15:42;8.15;;;3.38;;
23228;SDS011;11783;50.350;6.576;2023-05-29T06:18:08;9.25;;;3.88;;
23228;SDS011;11783;50.350;6.576;2023-05-29T06:20:33;12.93;;;4.05;;
23228;SDS011;11783;50.350;6.576;2023-05-29T06:22:58;9.88;;;3.97;;
23228;SDS011;11783;50.350;6.576;2023-05-29T06:25:24;10.63;;;5.13;;
23228;SDS011;11783;50.350;6.576;2023-05-29T06:27:58;9.27;;;4.70;;
23228;SDS011;11783;50.350;6.576;2023-05-29T06:30:27;9.77;;;4.47;;
23228;SDS011;11783;50.350;6.576;2023-05-29T06:32:52;8.10;;;4.32;;
23228;SDS011;11783;50.350;6.576;2023-05-29T06:35:18;7.93;;;4.22;;
23228;SDS011;11783;50.350;6.576;2023-05-29T06:37:44;10.20;;;4.45;;
23228;SDS011;11783;50.350;6.576;2023-05-29T06:40:10;11.02;;;5.25;;
23228;SDS011;11783;50.350;6.576;2023-05-29T06:42:37;10.38;;;4.70;;
23228;SDS011;11783;50.350;6.576;2023-05-29T06:45:02;9.65;;;5.03;;
23228;SDS011;11783;50.350;6.576;2023-05-29T06:47:27;12.05;;;5.22;;
23228;SDS011;11783;50.350;6.576;2023-05-29T06:49:53;11.95;;;6.18;;
23228;SDS011;11783;50.350;6.576;2023-05-29T06:52:18;10.27;;;5.35;;
23228;SDS011;11783;50.350;6.576;2023-05-29T06:54:44;12.43;;;5.95;;
23228;SDS011;11783;50.350;6.576;2023-05-29T06:57:10;9.00;;;4.57;;
23228;SDS011;11783;50.350;6.576;2023-05-29T06:59:35;14.88;;;5.70;;
23228;SDS011;11783;50.350;6.576;2023-05-29T07:02:00;12.65;;;5.35;;
23228;SDS011;11783;50.350;6.576;2023-05-29T07:04:26;9.00;;;4.65;;
23228;SDS011;11783;50.350;6.576;2023-05-29T07:06:51;10.88;;;4.20;;
23228;SDS011;11783;50.350;6.576;2023-05-29T07:09:17;9.10;;;5.00;;
23228;SDS011;11783;50.350;6.576;2023-05-29T07:11:43;11.63;;;4.55;;
23228;SDS011;11783;50.350;6.576;2023-05-29T07:14:08;10.30;;;4.18;;
23228;SDS011;11783;50.350;6.576;2023-05-29T07:16:33;11.68;;;4.43;;
23228;SDS011;11783;50.350;6.576;2023-05-29T07:18:58;13.35;;;4.88;;
23228;SDS011;11783;50.350;6.576;2023-05-29T07:21:24;10.57;;;4.05;;
23228;SDS011;11783;50.350;6.576;2023-05-29T07:23:50;12.57;;;5.18;;
23228;SDS011;11783;50.350;6.576;2023-05-29T07:26:15;11.13;;;4.40;;
23228;SDS011;11783;50.350;6.576;2023-05-29T07:28:41;9.32;;;4.07;;
23228;SDS011;11783;50.350;6.576;2023-05-29T07:31:06;11.75;;;5.10;;
23228;SDS011;11783;50.350;6.576;2023-05-29T07:33:31;9.80;;;4.43;;
23228;SDS011;11783;50.350;6.576;2023-05-29T07:35:57;9.05;;;4.35;;
23228;SDS011;11783;50.350;6.576;2023-05-29T07:38:22;11.50;;;5.20;;
23228;SDS011;11783;50.350;6.576;2023-05-29T07:40:47;11.27;;;4.45;;
23228;SDS011;11783;50.350;6.576;2023-05-29T07:43:13;9.35;;;5.00;;
23228;SDS011;11783;50.350;6.576;2023-05-29T07:45:38;8.63;;;4.50;;
23228;SDS011;11783;50.350;6.576;2023-05-29T07:48:03;11.85;;;4.38;;
23228;SDS011;11783;50.350;6.576;2023-05-29T07:50:29;12.27;;;5.18;;
23228;SDS011;11783;50.350;6.576;2023-05-29T07:52:54;13.95;;;4.40;;
23228;SDS011;11783;50.350;6.576;2023-05-29T07:55:21;12.43;;;4.32;;
23228;SDS011;11783;50.350;6.576;2023-05-29T07:57:46;14.80;;;4.40;;
23228;SDS011;11783;50.350;6.576;2023-05-29T08:00:13;10.95;;;4.57;;
23228;SDS011;11783;50.350;6.576;2023-05-29T08:02:39;9.63;;;4.60;;
23228;SDS011;11783;50.350;6.576;2023-05-29T08:05:05;14.10;;;4.65;;
23228;SDS011;11783;50.350;6.576;2023-05-29T08:07:32;9.48;;;4.07;;
23228;SDS011;11783;50.350;6.576;2023-05-29T08:09:58;11.85;;;4.70;;
23228;SDS011;11783;50.350;6.576;2023-05-29T08:12:23;11.32;;;4.97;;
23228;SDS011;11783;50.350;6.576;2023-05-29T08:14:49;8.75;;;4.20;;
23228;SDS011;11783;50.350;6.576;2023-05-29T08:17:14;12.73;;;4.32;;
23228;SDS011;11783;50.350;6.576;2023-05-29T08:19:40;10.50;;;3.67;;
23228;SDS011;11783;50.350;6.576;2023-05-29T08:22:05;9.70;;;4.45;;
23228;SDS011;11783;50.350;6.576;2023-05-29T08:24:31;11.95;;;4.40;;
23228;SDS011;11783;50.350;6.576;2023-05-29T08:26:56;7.50;;;3.40;;
23228;SDS011;11783;50.350;6.576;2023-05-29T08:29:21;7.15;;;3.28;;
23228;SDS011;11783;50.350;6.576;2023-05-29T08:31:47;10.60;;;4.10;;
23228;SDS011;11783;50.350;6.576;2023-05-29T08:34:12;11.32;;;4.40;;
23228;SDS011;11783;50.350;6.576;2023-05-29T08:36:38;10.63;;;3.90;;
23228;SDS011;11783;50.350;6.576;2023-05-29T08:39:06;10.98;;;3.30;;
23228;SDS011;11783;50.350;6.576;2023-05-29T08:44:09;9.27;;;3.42;;
23228;SDS011;11783;50.350;6.576;2023-05-29T08:46:39;8.80;;;3.38;;
23228;SDS011;11783;50.350;6.576;2023-05-29T08:49:05;7.97;;;3.38;;
23228;SDS011;11783;50.350;6.576;2023-05-29T08:51:35;10.05;;;3.47;;
23228;SDS011;11783;50.350;6.576;2023-05-29T08:54:03;7.30;;;3.22;;
23228;SDS011;11783;50.350;6.576;2023-05-29T08:56:29;10.52;;;3.40;;
23228;SDS011;11783;50.350;6.576;2023-05-29T08:58:54;9.93;;;3.45;;
23228;SDS011;11783;50.350;6.576;2023-05-29T09:01:22;10.55;;;3.13;;
23228;SDS011;11783;50.350;6.576;2023-05-29T09:03:50;10.18;;;3.63;;
23228;SDS011;11783;50.350;6.576;2023-05-29T09:06:15;9.35;;;3.10;;
23228;SDS011;11783;50.350;6.576;2023-05-29T09:08:42;10.32;;;3.00;;
23228;SDS011;11783;50.350;6.576;2023-05-29T09:11:08;8.00;;;3.13;;
23228;SDS011;11783;50.350;6.576;2023-05-29T09:13:33;9.75;;;3.70;;
23228;SDS011;11783;50.350;6.576;2023-05-29T09:15:59;7.40;;;3.47;;
23228;SDS011;11783;50.350;6.576;2023-05-29T09:18:28;11.43;;;3.55;;
23228;SDS011;11783;50.350;6.576;2023-05-29T09:23:21;12.35;;;3.50;;
23228;SDS011;11783;50.350;6.576;2023-05-29T09:25:50;9.65;;;3.13;;
23228;SDS011;11783;50.350;6.576;2023-05-29T09:30:44;10.77;;;3.20;;
23228;SDS011;11783;50.350;6.576;2023-05-29T09:33:12;10.60;;;2.80;;
23228;SDS011;11783;50.350;6.576;2023-05-29T09:35:39;10.77;;;3.63;;
23228;SDS011;11783;50.350;6.576;2023-05-29T09:38:05;11.45;;;2.90;;
23228;SDS011;11783;50.350;6.576;2023-05-29T09:40:32;14.20;;;2.97;;
23228;SDS011;11783;50.350;6.576;2023-05-29T09:45:39;12.40;;;3.38;;
23228;SDS011;11783;50.350;6.576;2023-05-29T09:48:12;10.77;;;3.70;;
23228;SDS011;11783;50.350;6.576;2023-05-29T09:50:39;9.30;;;3.10;;
23228;SDS011;11783;50.350;6.576;2023-05-29T09:53:07;10.48;;;3.70;;
23228;SDS011;11783;50.350;6.576;2023-05-29T09:55:45;8.25;;;3.00;;
23228;SDS011;11783;50.350;6.576;2023-05-29T09:58:23;9.02;;;2.85;;
23228;SDS011;11783;50.350;6.576;2023-05-29T10:00:49;9.50;;;3.47;;
23228;SDS011;11783;50.350;6.576;2023-05-29T10:03:16;9.70;;;2.90;;
23228;SDS011;11783;50.350;6.576;2023-05-29T10:05:43;11.52;;;3.00;;
23228;SDS011;11783;50.350;6.576;2023-05-29T10:08:12;9.55;;;3.20;;
23228;SDS011;11783;50.350;6.576;2023-05-29T10:10:43;10.95;;;2.88;;
23228;SDS011;11783;50.350;6.576;2023-05-29T10:13:11;12.15;;;3.40;;
23228;SDS011;11783;50.350;6.576;2023-05-29T10:15:39;8.45;;;3.17;;
23228;SDS011;11783;50.350;6.576;2023-05-29T10:18:16;7.95;;;3.13;;
23228;SDS011;11783;50.350;6.576;2023-05-29T10:20:57;10.65;;;3.28;;
23228;SDS011;11783;50.350;6.576;2023-05-29T10:23:24;11.57;;;3.20;;
23228;SDS011;11783;50.350;6.576;2023-05-29T10:25:53;9.30;;;2.83;;
23228;SDS011;11783;50.350;6.576;2023-05-29T10:28:24;10.57;;;3.30;;
23228;SDS011;11783;50.350;6.576;2023-05-29T10:31:03;10.32;;;3.00;;
23228;SDS011;11783;50.350;6.576;2023-05-29T10:36:21;10.75;;;3.50;;
23228;SDS011;11783;50.350;6.576;2023-05-29T10:38:49;11.35;;;3.20;;
23228;SDS011;11783;50.350;6.576;2023-05-29T10:43:53;9.48;;;3.42;;
23228;SDS011;11783;50.350;6.576;2023-05-29T10:46:20;11.27;;;3.88;;
23228;SDS011;11783;50.350;6.576;2023-05-29T10:48:48;11.45;;;3.75;;
23228;SDS011;11783;50.350;6.576;2023-05-29T10:51:24;13.85;;;3.65;;
23228;SDS011;11783;50.350;6.576;2023-05-29T10:53:51;10.48;;;3.15;;
23228;SDS011;11783;50.350;6.576;2023-05-29T10:56:21;13.60;;;3.85;;
23228;SDS011;11783;50.350;6.576;2023-05-29T11:01:20;19.58;;;3.80;;
23228;SDS011;11783;50.350;6.576;2023-05-29T11:03:47;12.45;;;3.88;;
23228;SDS011;11783;50.350;6.576;2023-05-29T11:06:18;10.55;;;3.28;;
23228;SDS011;11783;50.350;6.576;2023-05-29T11:13:53;11.35;;;3.63;;
23228;SDS011;11783;50.350;6.576;2023-05-29T11:18:54;12.60;;;3.20;;
23228;SDS011;11783;50.350;6.576;2023-05-29T11:21:28;8.88;;;3.38;;
23228;SDS011;11783;50.350;6.576;2023-05-29T11:23:55;13.48;;;3.47;;
23228;SDS011;11783;50.350;6.576;2023-05-29T11:26:23;14.85;;;3.70;;
23228;SDS011;11783;50.350;6.576;2023-05-29T11:28:51;11.40;;;3.53;;
23228;SDS011;11783;50.350;6.576;2023-05-29T11:31:16;12.95;;;3.22;;
23228;SDS011;11783;50.350;6.576;2023-05-29T11:33:46;9.10;;;3.05;;
23228;SDS011;11783;50.350;6.576;2023-05-29T11:36:17;11.25;;;3.30;;
23228;SDS011;11783;50.350;6.576;2023-05-29T11:38:44;15.60;;;4.00;;
23228;SDS011;11783;50.350;6.576;2023-05-29T11:41:10;14.10;;;4.00;;
23228;SDS011;11783;50.350;6.576;2023-05-29T11:43:35;12.02;;;3.78;;
23228;SDS011;11783;50.350;6.576;2023-05-29T11:46:01;13.15;;;4.03;;
23228;SDS011;11783;50.350;6.576;2023-05-29T11:48:27;9.65;;;3.30;;
23228;SDS011;11783;50.350;6.576;2023-05-29T11:50:53;10.52;;;3.28;;
23228;SDS011;11783;50.350;6.576;2023-05-29T11:53:18;10.52;;;3.15;;
23228;SDS011;11783;50.350;6.576;2023-05-29T11:55:43;10.48;;;3.42;;
23228;SDS011;11783;50.350;6.576;2023-05-29T11:58:09;11.02;;;2.67;;
23228;SDS011;11783;50.350;6.576;2023-05-29T12:00:37;10.88;;;2.90;;
23228;SDS011;11783;50.350;6.576;2023-05-29T12:03:04;11.50;;;3.42;;
23228;SDS011;11783;50.350;6.576;2023-05-29T12:05:48;11.05;;;3.00;;
23228;SDS011;11783;50.350;6.576;2023-05-29T12:08:15;13.13;;;3.20;;
23228;SDS011;11783;50.350;6.576;2023-05-29T12:10:47;12.38;;;3.38;;
23228;SDS011;11783;50.350;6.576;2023-05-29T12:13:13;12.32;;;3.92;;
23228;SDS011;11783;50.350;6.576;2023-05-29T12:15:42;15.80;;;4.05;;
23228;SDS011;11783;50.350;6.576;2023-05-29T12:18:07;14.63;;;3.95;;
23228;SDS011;11783;50.350;6.576;2023-05-29T12:20:33;13.38;;;3.40;;
23228;SDS011;11783;50.350;6.576;2023-05-29T12:22:59;15.88;;;3.60;;
23228;SDS011;11783;50.350;6.576;2023-05-29T12:25:26;13.32;;;3.17;;
23228;SDS011;11783;50.350;6.576;2023-05-29T12:27:52;12.80;;;3.60;;
23228;SDS011;11783;50.350;6.576;2023-05-29T12:30:21;12.05;;;3.60;;
23228;SDS011;11783;50.350;6.576;2023-05-29T12:32:48;12.60;;;3.60;;
23228;SDS011;11783;50.350;6.576;2023-05-29T12:35:24;13.13;;;3.58;;
23228;SDS011;11783;50.350;6.576;2023-05-29T12:37:54;13.68;;;3.25;;
23228;SDS011;11783;50.350;6.576;2023-05-29T12:40:26;12.82;;;3.45;;
23228;SDS011;11783;50.350;6.576;2023-05-29T12:42:54;12.43;;;3.65;;
23228;SDS011;11783;50.350;6.576;2023-05-29T12:45:25;9.93;;;3.22;;
23228;SDS011;11783;50.350;6.576;2023-05-29T12:52:55;10.65;;;4.07;;
23228;SDS011;11783;50.350;6.576;2023-05-29T12:55:22;15.15;;;3.35;;
23228;SDS011;11783;50.350;6.576;2023-05-29T12:57:47;10.45;;;3.10;;
23228;SDS011;11783;50.350;6.576;2023-05-29T13:00:13;14.68;;;4.07;;
23228;SDS011;11783;50.350;6.576;2023-05-29T13:02:38;13.25;;;3.70;;
23228;SDS011;11783;50.350;6.576;2023-05-29T13:05:04;9.77;;;3.30;;
23228;SDS011;11783;50.350;6.576;2023-05-29T13:07:31;15.13;;;3.72;;
23228;SDS011;11783;50.350;6.576;2023-05-29T13:09:56;10.90;;;3.15;;
23228;SDS011;11783;50.350;6.576;2023-05-29T13:12:22;13.80;;;3.90;;
23228;SDS011;11783;50.350;6.576;2023-05-29T13:14:47;15.63;;;3.50;;
23228;SDS011;11783;50.350;6.576;2023-05-29T13:17:13;12.20;;;4.13;;
23228;SDS011;11783;50.350;6.576;2023-05-29T13:19:38;12.80;;;3.30;;
23228;SDS011;11783;50.350;6.576;2023-05-29T13:22:03;9.32;;;3.13;;
23228;SDS011;11783;50.350;6.576;2023-05-29T13:24:29;15.23;;;3.88;;
23228;SDS011;11783;50.350;6.576;2023-05-29T13:26:55;10.18;;;2.55;;
23228;SDS011;11783;50.350;6.576;2023-05-29T13:29:20;12.63;;;3.65;;
23228;SDS011;11783;50.350;6.576;2023-05-29T13:31:45;14.25;;;3.63;;
23228;SDS011;11783;50.350;6.576;2023-05-29T13:34:11;11.93;;;3.75;;
23228;SDS011;11783;50.350;6.576;2023-05-29T13:36:36;12.60;;;3.05;;
23228;SDS011;11783;50.350;6.576;2023-05-29T13:39:02;10.68;;;3.08;;
23228;SDS011;11783;50.350;6.576;2023-05-29T13:41:28;10.60;;;3.13;;
23228;SDS011;11783;50.350;6.576;2023-05-29T13:43:53;10.55;;;3.78;;
23228;SDS011;11783;50.350;6.576;2023-05-29T13:46:18;9.45;;;3.08;;
23228;SDS011;11783;50.350;6.576;2023-05-29T13:48:44;14.35;;;3.63;;
23228;SDS011;11783;50.350;6.576;2023-05-29T13:51:09;12.65;;;3.47;;
23228;SDS011;11783;50.350;6.576;2023-05-29T13:53:35;12.27;;;2.90;;
23228;SDS011;11783;50.350;6.576;2023-05-29T13:56:00;8.30;;;3.05;;
23228;SDS011;11783;50.350;6.576;2023-05-29T13:58:25;11.52;;;3.20;;
23228;SDS011;11783;50.350;6.576;2023-05-29T14:00:51;15.30;;;3.78;;
23228;SDS011;11783;50.350;6.576;2023-05-29T14:03:16;9.05;;;3.63;;
23228;SDS011;11783;50.350;6.576;2023-05-29T14:05:42;11.23;;;3.50;;
23228;SDS011;11783;50.350;6.576;2023-05-29T14:08:08;11.50;;;3.90;;
23228;SDS011;11783;50.350;6.576;2023-05-29T14:10:33;9.73;;;3.05;;
23228;SDS011;11783;50.350;6.576;2023-05-29T14:12:58;10.90;;;3.10;;
23228;SDS011;11783;50.350;6.576;2023-05-29T14:15:23;13.95;;;3.22;;
23228;SDS011;11783;50.350;6.576;2023-05-29T14:17:49;11.95;;;2.97;;
23228;SDS011;11783;50.350;6.576;2023-05-29T14:20:14;11.85;;;3.10;;
23228;SDS011;11783;50.350;6.576;2023-05-29T14:22:39;13.18;;;3.22;;
23228;SDS011;11783;50.350;6.576;2023-05-29T14:25:05;11.27;;;3.67;;
23228;SDS011;11783;50.350;6.576;2023-05-29T14:27:30;15.35;;;3.58;;
23228;SDS011;11783;50.350;6.576;2023-05-29T14:29:56;11.55;;;3.10;;
23228;SDS011;11783;50.350;6.576;2023-05-29T14:32:21;12.77;;;3.15;;
23228;SDS011;11783;50.350;6.576;2023-05-29T14:34:46;14.02;;;3.88;;
23228;SDS011;11783;50.350;6.576;2023-05-29T14:37:12;9.75;;;3.13;;
23228;SDS011;11783;50.350;6.576;2023-05-29T14:39:37;13.02;;;3.63;;
23228;SDS011;11783;50.350;6.576;2023-05-29T14:42:02;14.55;;;3.42;;
23228;SDS011;11783;50.350;6.576;2023-05-29T14:44:28;13.07;;;3.47;;
23228;SDS011;11783;50.350;6.576;2023-05-29T14:46:53;10.85;;;3.38;;
23228;SDS011;11783;50.350;6.576;2023-05-29T14:49:19;18.75;;;3.72;;
23228;SDS011;11783;50.350;6.576;2023-05-29T14:51:46;9.48;;;3.40;;
23228;SDS011;11783;50.350;6.576;2023-05-29T14:54:11;11.65;;;3.10;;
23228;SDS011;11783;50.350;6.576;2023-05-29T14:56:37;9.27;;;3.25;;
23228;SDS011;11783;50.350;6.576;2023-05-29T14:59:02;13.20;;;3.20;;
23228;SDS011;11783;50.350;6.576;2023-05-29T15:01:28;10.10;;;3.47;;
23228;SDS011;11783;50.350;6.576;2023-05-29T15:03:53;10.75;;;3.20;;
23228;SDS011;11783;50.350;6.576;2023-05-29T15:06:19;9.05;;;3.47;;
23228;SDS011;11783;50.350;6.576;2023-05-29T15:08:44;13.40;;;3.10;;
23228;SDS011;11783;50.350;6.576;2023-05-29T15:11:10;9.82;;;3.35;;
23228;SDS011;11783;50.350;6.576;2023-05-29T15:13:37;10.73;;;3.17;;
23228;SDS011;11783;50.350;6.576;2023-05-29T15:16:03;13.30;;;3.50;;
23228;SDS011;11783;50.350;6.576;2023-05-29T15:18:29;10.90;;;3.05;;